ソルト・レーク・シティ国際空港の過去48時間の天気

ソルト・レーク・シティ国際空港 (Salt Lake City, Salt Lake City International Airport)

現在時刻: 1/22 19:15 MST (1/23 02:15 UTC) 以下の時間は現地時間です。

過去48時間のMETAR気象情報
時間 風向 風速(m/s) 視程 気温(℃) 湿度(%) 気圧(hPa) 天気現象
22 18:54 4 10km以上 5 82 1006.4 弱い雨
22 17:54 南東 4 10km以上 5.6 76 1006.4
22 16:54 5 10km以上 6.7 73 1005.9 弱い雨
22 15:54 南南東 9 10km以上 7.8 63 1006.5
22 14:54 8 10km以上 10 48 1006.8
22 13:54 不定 2 10km以上 7.8 51 1007
22 12:54 北西 3 10km以上 5.6 59 1008.1
22 11:54 静穏 0 10km以上 6.7 53 1010.2
22 10:54 静穏 0 10km以上 3.9 62 1011.7
22 09:54 静穏 0 10km以上 1.1 72 1012.2
22 08:54 静穏 0 10km以上 -0.6 78 1013
22 07:54 西南西 2 10km以上 -2.2 85 1013.3
22 06:54 北東 2 10km以上 -2.2 85 1013
22 05:54 静穏 0 10km以上 -2.8 85 1012.9
22 04:54 静穏 0 10km以上 -2.2 81 1013
22 03:54 2 10km以上 -2.8 81 1013.5
22 02:54 静穏 0 10km以上 -2.8 81 1013.6
22 01:54 南西 3 10km以上 -3.3 84 1013.9
22 00:54 静穏 0 10km以上 -1.1 75 1012.8
21 23:54 南西 3 10km以上 -1.1 75 1014.5
21 22:54 北北東 3 10km以上 -1.1 75 1015.6
21 21:54 静穏 0 10km以上 0.6 69 1015.7
21 20:54 南南東 2 10km以上 0.6 66 1016.3
21 19:54 静穏 0 10km以上 0.6 69 1017.2
21 18:54 静穏 0 10km以上 1.7 64 1017.5
21 17:54 西南西 2 10km以上 2.2 62 1016.9
21 16:54 西北西 3 10km以上 3.3 59 1017.2
21 15:54 西北西 3 10km以上 5 53 1017
21 14:54 西北西 2 10km以上 5.6 49 1017.3
21 13:54 北西 3 10km以上 5 48 1017.6
21 12:54 西北西 3 10km以上 5 51 1018.1
21 11:54 北北西 3 10km以上 3.3 57 1019.2
21 10:54 2 10km以上 2.8 54 1020.2
21 09:54 静穏 0 10km以上 0.6 61 1020.5
21 08:54 2 10km以上 -2.8 75 1020.9
21 07:54 東南東 2 10km以上 -4.4 81 1020.6 地霧
21 06:54 南南東 2 10km以上 -5 81 1020.8
21 05:54 静穏 0 10km以上 -3.9 78 1020.7
21 04:54 南南東 2 10km以上 -5 85 1020.8
21 03:54 西 2 10km以上 -5 81 1021
21 02:54 2 10km以上 -4.4 81 1020.7
21 01:54 南南東 2 10km以上 -3.9 81 1020.5
21 00:54 静穏 0 10km以上 -3.9 85 1021.5
20 23:54 静穏 0 10km以上 -3.9 81 1022.1
20 22:54 静穏 0 10km以上 -3.3 81 1022.4
20 21:54 静穏 0 10km以上 -2.2 71 1022.4
20 20:54 北北西 2 10km以上 -1.7 69 1022.8
20 19:54 静穏 0 10km以上 -1.1 66 1023.4
KSLC 230154Z 19007KT 9SM -RA SCT033 BKN050 OVC070 05/02 A2971 RMK AO2 RAB29 SLP064 P0001 T00500022
KSLC 230054Z 14007KT 10SM FEW065 BKN110 BKN150 06/02 A2971 RMK AO2 RAE07 SLP064 SH DSNT SE-SW P0000 T00560017
KSLC 222354Z 17010KT 10SM -RA SCT028 BKN050 OVC080 07/02 A2973 RMK AO2 PK WND 16026/2256 RAB35 SLP059 BINOVC P0000 60000 T00670022 10100 20039 56010
KSLC 222254Z 16017G22KT 10SM FEW050 BKN070 OVC110 08/01 A2973 RMK AO2 PK WND 15026/2229 SLP065 VIRGA SH DSNT SE-S T00780011
KSLC 222154Z 18015G19KT 10SM FEW045 FEW060 BKN085 BKN220 10/M01 A2974 RMK AO2 WSHFT 2136 SLP068 VIRGA CB DSNT SE AND S SH DSNT SE T01001006
KSLC 222054Z VRB03KT 10SM FEW060 BKN095 BKN210 08/M02 A2976 RMK AO2 SLP070 VIRGA ACSL DSNT SE AND S T00781017 57031
KSLC 221954Z 31005KT 10SM FEW065 SCT080 BKN095 BKN200 06/M02 A2979 RMK AO2 SLP081 VIRGA ACSL DSNT SE-SW T00561017
KSLC 221854Z 00000KT 10SM FEW060 SCT100 BKN120 BKN230 07/M02 A2983 RMK AO2 SLP102 VIRGA ACSL DSNT SE-S SH DSNT SE T00671022
KSLC 221754Z 00000KT 10SM FEW050 SCT100 BKN200 04/M03 A2986 RMK AO2 SLP117 VIRGA T00391028 10039 21028 58008
KSLC 221654Z 00000KT 9SM FEW050 SCT100 BKN200 BKN230 01/M03 A2987 RMK AO2 SLP122 VIRGA ACSL DSNT SE T00111033
KSLC 221554Z 00000KT 8SM FEW060 SCT095 BKN220 M01/M04 A2989 RMK AO2 SLP130 ACSL DSNT NE AND SE T10061039
KSLC 221454Z 24004KT 10SM FEW055 BKN110 BKN220 M02/M04 A2989 RMK AO2 SLP133 VIRGA T10221044 55000
KSLC 221354Z 04004KT 8SM BKN120 M02/M04 A2989 RMK AO2 SLP130 T10221044
KSLC 221254Z 00000KT 10SM FEW070 SCT120 M03/M05 A2988 RMK AO2 SLP129 T10281050
KSLC 221154Z 00000KT 10SM FEW070 BKN120 M02/M05 A2989 RMK AO2 SLP130 T10221050 11006 21033 58009
KSLC 221054Z 36003KT 10SM SCT130 BKN190 M03/M06 A2991 RMK AO2 SLP135 T10281056
KSLC 220954Z 00000KT 10SM FEW070 SCT110 BKN190 M03/M06 A2992 RMK AO2 SLP136 T10281056
KSLC 220854Z 23005KT 10SM FEW070 SCT110 BKN190 M03/M06 A2992 RMK AO2 SLP139 T10331056 56015
KSLC 220754Z 00000KT 10SM FEW070 SCT110 SCT190 M01/M05 A2993 RMK AO2 SLP128 T10111050
KSLC 220654Z 22006KT 10SM FEW160 SCT190 M01/M05 A2994 RMK AO2 SLP145 T10111050 400611061
KSLC 220554Z 02005KT 10SM FEW160 SCT190 M01/M05 A2997 RMK AO2 SLP156 T10111050 10033 21017 55006
KSLC 220454Z 00000KT 10SM SCT110 SCT200 01/M04 A2997 RMK AO2 SLP157 T00061044
KSLC 220354Z 16004KT 10SM FEW100 BKN130 01/M05 A2997 RMK AO2 SLP163 T00061050
KSLC 220254Z 00000KT 10SM BKN095 BKN130 01/M04 A2999 RMK AO2 SLP172 T00061044 58003
KSLC 220154Z 00000KT 10SM BKN100 BKN120 02/M04 A3000 RMK AO2 SLP175 T00171044
KSLC 220054Z 25003KT 10SM FEW070 BKN095 BKN130 02/M04 A2999 RMK AO2 SLP169 VIRGA T00221044
KSLC 212354Z 30005KT 10SM FEW070 BKN100 BKN180 03/M04 A3000 RMK AO2 SLP172 VIRGA ACSL DSNT E-SE AND SW T00331039 10061 20028 56007
KSLC 212254Z 29005KT 10SM FEW075 SCT110 BKN170 BKN220 05/M04 A3000 RMK AO2 SLP170 ACSL DSNT NE-SE T00501039
KSLC 212154Z 30004KT 10SM FEW070 BKN090 BKN120 BKN220 06/M04 A3002 RMK AO2 SLP173 VIRGA ACSL DSNT NE AND SE-SW T00561044
KSLC 212054Z 32005KT 10SM FEW070 BKN100 BKN200 05/M05 A3002 RMK AO2 SLP176 VIRGA ACSL DSNT SE-SW T00501050 56020
KSLC 211954Z 30005KT 10SM FEW065 SCT090 BKN200 BKN250 05/M04 A3004 RMK AO2 SLP181 ACSL DSNT SE-SW T00501044
KSLC 211854Z 33005KT 8SM FEW065 BKN110 BKN220 03/M04 A3007 RMK AO2 SLP192 ACSL DSNT NE-E AND SE T00331044
KSLC 211754Z 35003KT 10SM FEW065 FEW120 SCT200 BKN230 03/M06 A3009 RMK AO2 SLP202 ACSL DSNT NE T00281056 10028 21050 50005
KSLC 211654Z 00000KT 10SM FEW060 FEW140 SCT200 BKN230 01/M06 A3010 RMK AO2 SLP205 ACSL DSNT NE AND SE T00061061
KSLC 211554Z 09004KT 9SM FEW050 FEW065 SCT140 BKN220 M03/M07 A3009 RMK AO2 SLP209 ACSL DSNT NE-SE T10281067
KSLC 211454Z 12004KT 10SM MIFG FEW065 BKN140 BKN210 M04/M07 A3008 RMK AO2 SLP206 T10441072 58007
KSLC 211354Z 16003KT 10SM FEW200 M05/M08 A3009 RMK AO2 SLP208 T10501078
KSLC 211254Z 00000KT 10SM FEW080 SCT180 M04/M07 A3009 RMK AO2 SLP207 T10391072
KSLC 211154Z 15003KT 10SM FEW200 M05/M07 A3010 RMK AO2 SLP208 T10501072 11028 21061 58001
KSLC 211054Z 28004KT 10SM FEW200 M05/M08 A3012 RMK AO2 SLP210 T10501078
KSLC 210954Z 35003KT 10SM FEW200 M04/M07 A3011 RMK AO2 SLP207 T10441072
KSLC 210854Z 15003KT 10SM FEW200 M04/M07 A3011 RMK AO2 SLP205 T10391067 58012
KSLC 210754Z 00000KT 10SM FEW200 M04/M06 A3013 RMK AO2 SLP215 T10391061
KSLC 210654Z 00000KT 10SM FEW200 M04/M07 A3014 RMK AO2 SLP221 T10391067 400561061
KSLC 210554Z 00000KT 10SM FEW200 M03/M06 A3014 RMK AO2 SLP224 T10331061 10028 21033 56003
KSLC 210454Z 00000KT 10SM FEW200 M02/M07 A3015 RMK AO2 SLP224 T10221067
KSLC 210354Z 33003KT 10SM FEW200 M02/M07 A3015 RMK AO2 SLP228 T10171067
KSLC 210254Z 00000KT 10SM CLR M01/M07 A3016 RMK AO2 SLP234 T10111067 55003